Time;durP1;ratioP1;P1;durP2;ratioP2;P2;SDS_P1;SDS_P2;PMS_P1;PMS_P2;Temp;Humidity;BMP_temperature;BMP_pressure;BME280_temperature;BME280_humidity;BME280_pressure;Samples;Min_cycle;Max_cycle;Signal;HPM_P1;HPM_P2
2023/04/06 00:00:46;;;;;;;36.63;16.50;;;;;;;-146.27;35.70;82792.00;5091635;28;20089;-69
2023/04/06 00:03:11;;;;;;;29.02;15.65;;;;;;;-146.27;35.34;82719.66;5082115;28;20035;-68
2023/04/06 00:05:36;;;;;;;34.58;16.17;;;;;;;-146.27;35.12;82739.75;5086442;28;20115;-69
2023/04/06 00:08:02;;;;;;;30.88;15.07;;;;;;;-146.27;35.28;82779.94;5092522;28;20081;-69
2023/04/06 00:10:27;;;;;;;27.77;16.00;;;;;;;-146.27;34.98;82741.78;5093840;28;20054;-68
2023/04/06 00:12:53;;;;;;;28.63;15.20;;;;;;;-146.27;35.04;82743.78;5085598;28;20448;-69
2023/04/06 00:15:19;;;;;;;32.45;15.48;;;;;;;-146.27;34.99;82729.72;5085891;28;20324;-68
2023/04/06 00:17:44;;;;;;;37.35;17.23;;;;;;;-146.27;35.18;82777.94;5092132;28;20028;-68
2023/04/06 00:20:10;;;;;;;28.58;15.23;;;;;;;-146.27;35.27;82794.00;5091843;28;20040;-69
2023/04/06 00:22:35;;;;;;;30.33;15.32;;;;;;;-146.27;35.16;82755.84;5081919;28;20074;-68
2023/04/06 00:25:01;;;;;;;29.90;14.75;;;;;;;-146.27;35.14;82785.97;5078771;28;20272;-68
2023/04/06 00:27:26;;;;;;;32.00;14.23;;;;;;;-146.27;34.67;82753.81;5091909;28;20536;-68
2023/04/06 00:29:52;;;;;;;23.92;12.98;;;;;;;-146.27;34.72;82789.97;5073989;28;20034;-69
2023/04/06 00:32:17;;;;;;;29.08;12.40;;;;;;;-146.27;34.77;82779.94;5092196;28;20072;-68
2023/04/06 00:34:42;;;;;;;28.60;13.90;;;;;;;-146.27;34.68;82729.72;5084596;28;20028;-69
2023/04/06 00:37:08;;;;;;;23.90;12.05;;;;;;;-146.27;35.13;82816.09;5086241;28;20138;-69
2023/04/06 00:39:33;;;;;;;24.30;13.93;;;;;;;-146.27;35.00;82755.84;5091392;28;20035;-69
2023/04/06 00:42:00;;;;;;;30.70;13.82;;;;;;;-146.27;34.99;82812.09;5077771;28;20449;-69
2023/04/06 00:44:25;;;;;;;26.60;13.50;;;;;;;-146.27;34.44;82773.91;5082074;28;20476;-69
2023/04/06 00:46:50;;;;;;;22.90;12.48;;;;;;;-146.27;34.68;82810.06;5088028;28;20056;-68
2023/04/06 00:49:16;;;;;;;24.95;13.65;;;;;;;-146.27;34.70;82792.00;5075350;28;20115;-69
2023/04/06 00:51:42;;;;;;;21.17;11.93;;;;;;;-146.27;34.59;82810.06;5086357;28;20448;-69
2023/04/06 00:54:07;;;;;;;21.00;11.80;;;;;;;-146.27;34.70;82781.94;5080550;28;20503;-69
2023/04/06 00:56:33;;;;;;;19.70;11.68;;;;;;;-146.27;34.64;82777.94;5078533;28;20471;-68
2023/04/06 00:58:58;;;;;;;24.20;12.45;;;;;;;-146.27;34.79;82818.13;5091969;28;20058;-68
2023/04/06 01:01:24;;;;;;;21.50;11.65;;;;;;;-146.27;35.19;82834.19;5090482;28;20091;-68
2023/04/06 01:03:50;;;;;;;18.83;11.52;;;;;;;-146.27;34.86;82781.94;5082476;28;20025;-68
2023/04/06 01:06:16;;;;;;;22.95;11.02;;;;;;;-146.27;34.61;82842.22;5077342;28;20035;-69
2023/04/06 01:08:41;;;;;;;21.85;11.68;;;;;;;-146.27;34.63;82826.16;5081440;28;20019;-69
2023/04/06 01:11:07;;;;;;;18.90;10.23;;;;;;;-146.27;34.21;82854.28;5086800;28;20139;-69
2023/04/06 01:13:32;;;;;;;19.67;10.52;;;;;;;-146.27;34.29;82769.91;5083102;28;20024;-69
2023/04/06 01:15:58;;;;;;;19.25;10.38;;;;;;;-146.27;34.10;82755.84;5082801;28;20483;-69
2023/04/06 01:18:27;;;;;;;18.23;10.35;;;;;;;-146.27;33.99;82749.81;5092757;28;20039;-68
2023/04/06 01:20:53;;;;;;;18.08;10.27;;;;;;;-146.27;34.32;82806.06;5087367;28;20020;-69
2023/04/06 01:23:18;;;;;;;23.10;10.40;;;;;;;-146.27;34.42;82810.06;5089042;28;20031;-68
2023/04/06 01:25:43;;;;;;;18.92;10.35;;;;;;;-146.27;34.44;82818.13;5092276;28;20027;-69
2023/04/06 01:28:09;;;;;;;18.35;11.02;;;;;;;-146.27;34.37;82832.19;5086290;28;20028;-69
2023/04/06 01:30:34;;;;;;;17.52;10.02;;;;;;;-146.27;34.63;82850.25;5085728;28;20025;-69
2023/04/06 01:33:00;;;;;;;19.65;10.48;;;;;;;-146.27;34.48;82834.19;5080798;28;20456;-69
2023/04/06 01:35:27;;;;;;;16.58;9.82;;;;;;;-146.27;34.60;82808.06;5075199;28;20111;-69
2023/04/06 01:37:52;;;;;;;20.10;10.45;;;;;;;-146.27;34.45;82826.16;5079440;28;20375;-69
2023/04/06 01:40:18;;;;;;;17.67;10.15;;;;;;;-146.27;34.61;82826.16;5091258;28;20028;-69
2023/04/06 01:42:43;;;;;;;17.83;10.90;;;;;;;-146.27;34.62;82842.22;5087561;28;20380;-69
2023/04/06 01:45:09;;;;;;;15.43;9.85;;;;;;;-146.27;34.56;82870.34;5083265;28;20024;-69
2023/04/06 01:47:34;;;;;;;16.70;10.43;;;;;;;-146.27;34.60;82794.00;5091264;28;20032;-69
2023/04/06 01:50:00;;;;;;;15.48;9.18;;;;;;;-146.27;34.73;82818.13;5087844;28;20407;-69
2023/04/06 01:52:25;;;;;;;19.80;9.88;;;;;;;-146.27;34.56;82858.28;5083121;28;20032;-68
2023/04/06 01:54:50;;;;;;;21.40;10.15;;;;;;;-146.27;34.86;82846.25;5092307;28;20031;-69
2023/04/06 01:57:16;;;;;;;18.55;9.35;;;;;;;-146.27;34.83;82842.22;5082017;28;20033;-69
2023/04/06 01:59:41;;;;;;;21.23;11.65;;;;;;;-146.27;35.39;82872.34;5082519;28;20063;-68
2023/04/06 02:02:06;;;;;;;18.17;9.85;;;;;;;-146.27;35.18;82866.31;5085317;28;20056;-68
2023/04/06 02:04:32;;;;;;;16.40;9.88;;;;;;;-146.27;35.08;82852.25;5092171;28;20035;-68
2023/04/06 02:06:57;;;;;;;19.60;9.63;;;;;;;-146.27;35.10;82830.16;5093974;28;20028;-69
2023/04/06 02:09:22;;;;;;;18.80;10.68;;;;;;;-146.27;35.04;82838.19;5085276;28;20052;-67
2023/04/06 02:11:48;;;;;;;17.80;10.40;;;;;;;-146.27;35.19;82781.94;5088107;28;20089;-69
2023/04/06 02:14:13;;;;;;;16.70;10.35;;;;;;;-146.27;35.47;82822.13;5095265;28;20085;-69
2023/04/06 02:16:39;;;;;;;13.63;9.00;;;;;;;-146.27;35.18;82832.19;5076523;28;20020;-69
2023/04/06 02:19:04;;;;;;;16.23;10.05;;;;;;;-146.27;35.12;82830.16;5089151;28;20103;-69
2023/04/06 02:21:29;;;;;;;17.15;10.05;;;;;;;-146.27;34.99;82798.03;5086065;28;20522;-69
2023/04/06 02:23:55;;;;;;;16.08;9.77;;;;;;;-146.27;34.79;82842.22;5095885;28;20039;-69
2023/04/06 02:26:20;;;;;;;18.35;10.18;;;;;;;-146.27;34.91;82822.13;5092359;28;20103;-69
2023/04/06 02:28:45;;;;;;;17.80;10.60;;;;;;;-146.27;34.89;82781.94;5091633;28;20066;-68
2023/04/06 02:31:11;;;;;;;18.60;10.52;;;;;;;-146.27;34.66;82814.09;5078297;28;20012;-68
2023/04/06 02:33:37;;;;;;;15.63;9.52;;;;;;;-146.27;34.61;82785.97;5089729;28;20020;-69
2023/04/06 02:36:02;;;;;;;16.88;10.02;;;;;;;-146.27;34.79;82834.19;5093510;28;20039;-69
2023/04/06 02:38:28;;;;;;;18.13;10.25;;;;;;;-146.27;34.93;82818.13;5083591;28;20026;-69
2023/04/06 02:40:53;;;;;;;18.65;10.50;;;;;;;-146.27;35.54;82858.28;5083783;28;20039;-69
2023/04/06 02:43:19;;;;;;;24.40;11.43;;;;;;;-146.27;35.01;82792.00;5088664;28;20021;-67
2023/04/06 02:45:44;;;;;;;14.98;9.63;;;;;;;-146.27;35.20;82802.03;5087007;28;20028;-69
2023/04/06 02:48:10;;;;;;;21.88;11.00;;;;;;;-146.27;35.36;82856.28;5089497;28;20027;-69
2023/04/06 02:50:35;;;;;;;19.40;10.23;;;;;;;-146.27;35.28;82824.13;5089123;28;20032;-69
2023/04/06 02:53:00;;;;;;;20.13;10.63;;;;;;;-146.27;35.36;82830.16;5086179;28;20052;-68
2023/04/06 02:55:26;;;;;;;20.38;11.10;;;;;;;-146.27;35.34;82822.13;5085841;28;20081;-69
2023/04/06 02:57:51;;;;;;;17.00;10.43;;;;;;;-146.27;35.13;82765.88;5085064;28;20344;-69
2023/04/06 03:00:17;;;;;;;19.70;10.55;;;;;;;-146.27;35.09;82789.97;5086559;28;20568;-69
2023/04/06 03:02:42;;;;;;;17.92;10.55;;;;;;;-146.27;35.70;82834.19;5094467;28;20655;-69
2023/04/06 03:05:08;;;;;;;21.08;11.57;;;;;;;-146.27;36.12;82906.50;5095283;28;20028;-69
2023/04/06 03:07:33;;;;;;;18.50;11.43;;;;;;;-146.27;35.86;82868.34;5094161;28;20403;-69
2023/04/06 03:09:58;;;;;;;22.70;10.77;;;;;;;-146.27;35.73;82818.13;5094508;28;20036;-68
2023/04/06 03:12:24;;;;;;;19.40;11.02;;;;;;;-146.27;35.61;82826.16;5092057;28;20131;-68
2023/04/06 03:14:49;;;;;;;25.73;11.00;;;;;;;-146.27;35.60;82802.03;5082729;28;20024;-69
2023/04/06 03:17:15;;;;;;;21.77;12.60;;;;;;;-146.27;35.56;82796.00;5087344;28;20070;-69
2023/04/06 03:19:40;;;;;;;19.75;11.48;;;;;;;-146.27;35.59;82832.19;5082962;28;20032;-69
2023/04/06 03:22:05;;;;;;;24.38;12.63;;;;;;;-146.27;36.17;82878.38;5094738;28;20012;-69
2023/04/06 03:24:31;;;;;;;19.67;11.60;;;;;;;-146.27;35.72;82816.09;5089927;28;20029;-68
2023/04/06 03:26:56;;;;;;;26.65;11.77;;;;;;;-146.27;36.00;82876.38;5091510;28;20107;-69
2023/04/06 03:29:21;;;;;;;20.35;11.52;;;;;;;-146.27;36.01;82844.22;5092016;28;20036;-68
2023/04/06 03:31:47;;;;;;;18.52;11.27;;;;;;;-146.27;36.18;82822.13;5074356;28;20032;-68
2023/04/06 03:34:12;;;;;;;14.85;9.80;;;;;;;-146.27;36.28;82830.16;5087849;28;20028;-69
2023/04/06 03:36:38;;;;;;;20.23;11.23;;;;;;;-146.27;36.35;82826.16;5078978;28;20431;-69
2023/04/06 03:39:03;;;;;;;20.95;11.52;;;;;;;-146.27;36.77;82846.25;5086041;28;20023;-68
2023/04/06 03:41:28;;;;;;;20.80;11.30;;;;;;;-146.27;36.23;82796.00;5084853;28;20058;-69
2023/04/06 03:43:54;;;;;;;23.05;11.57;;;;;;;-146.27;36.13;82796.00;5077270;28;20020;-68
2023/04/06 03:46:19;;;;;;;20.58;12.40;;;;;;;-146.27;36.49;82814.09;5089965;28;20032;-69
2023/04/06 03:48:47;;;;;;;21.58;12.40;;;;;;;-146.27;36.14;82777.94;5092468;28;20112;-69
2023/04/06 03:51:13;;;;;;;22.98;11.45;;;;;;;-146.27;35.99;82798.03;5087952;28;20028;-68
2023/04/06 03:53:38;;;;;;;23.27;12.63;;;;;;;-146.27;36.43;82777.94;5088638;28;20024;-68
2023/04/06 03:56:04;;;;;;;23.48;12.27;;;;;;;-146.27;36.55;82798.03;5081176;28;20078;-69
2023/04/06 03:58:30;;;;;;;21.42;12.82;;;;;;;-146.27;35.96;82759.84;5090498;28;20379;-70
2023/04/06 04:00:55;;;;;;;20.95;11.68;;;;;;;-146.27;36.11;82745.78;5079654;28;20017;-68
2023/04/06 04:03:23;;;;;;;20.88;11.95;;;;;;;-146.27;36.13;82773.91;5084875;28;20028;-69
2023/04/06 04:05:48;;;;;;;22.98;12.00;;;;;;;-146.27;35.93;82733.72;5090906;28;20601;-69
2023/04/06 04:08:14;;;;;;;20.60;11.70;;;;;;;-146.27;35.70;82709.63;5077744;28;20122;-67
2023/04/06 04:10:39;;;;;;;21.10;12.98;;;;;;;-146.27;36.22;82629.28;5093128;28;20040;-68
2023/04/06 04:13:05;;;;;;;19.88;12.63;;;;;;;-146.27;35.93;82759.84;5093525;28;20028;-70
2023/04/06 04:15:30;;;;;;;21.10;12.50;;;;;;;-146.27;35.84;82683.50;5087274;28;20082;-68
2023/04/06 04:17:55;;;;;;;24.95;13.00;;;;;;;-146.27;35.90;82749.81;5088297;28;20016;-69
2023/04/06 04:20:21;;;;;;;27.55;12.75;;;;;;;-146.27;36.08;82729.72;5079069;28;20150;-69
2023/04/06 04:22:47;;;;;;;24.75;12.27;;;;;;;-146.27;36.38;82745.78;5093390;28;20059;-69
2023/04/06 04:25:13;;;;;;;19.38;11.75;;;;;;;-146.27;36.18;82733.72;5085638;28;20063;-68
2023/04/06 04:27:38;;;;;;;19.90;12.32;;;;;;;-146.27;36.00;82701.59;5078435;28;20028;-69
2023/04/06 04:30:05;;;;;;;27.92;12.82;;;;;;;-146.27;36.40;82709.63;5074934;28;20024;-68
2023/04/06 04:32:31;;;;;;;23.42;13.43;;;;;;;-146.27;36.54;82713.66;5074937;28;20021;-68
2023/04/06 04:34:56;;;;;;;22.75;12.80;;;;;;;-146.27;36.14;82673.47;5087203;28;20494;-69
2023/04/06 04:37:21;;;;;;;22.25;11.68;;;;;;;-146.27;36.26;82681.50;5076345;28;20142;-69
2023/04/06 04:39:47;;;;;;;25.63;12.68;;;;;;;-146.27;36.69;82673.47;5081268;28;20047;-69
2023/04/06 04:42:14;;;;;;;20.70;12.90;;;;;;;-146.27;36.70;82749.81;5091878;28;20529;-69
2023/04/06 04:44:39;;;;;;;21.52;11.80;;;;;;;-146.27;36.59;82757.84;5075130;28;20029;-70
2023/04/06 04:47:05;;;;;;;20.55;12.50;;;;;;;-146.27;36.79;82721.69;5076876;28;20040;-70
2023/04/06 04:49:30;;;;;;;23.92;12.35;;;;;;;-146.27;36.81;82731.72;5089634;28;20016;-68
2023/04/06 04:51:55;;;;;;;22.00;13.30;;;;;;;-146.27;36.28;82695.56;5080290;28;20109;-68
2023/04/06 04:54:21;;;;;;;24.38;12.60;;;;;;;-146.27;36.44;82693.56;5088328;28;20434;-69
2023/04/06 04:56:46;;;;;;;18.42;12.27;;;;;;;-146.27;36.62;82701.59;5092316;28;20057;-68
2023/04/06 04:59:11;;;;;;;21.42;11.63;;;;;;;-146.27;35.97;82593.09;5082599;28;20074;-68
2023/04/06 05:01:37;;;;;;;24.75;12.38;;;;;;;-146.27;36.10;82601.16;5077602;28;20033;-69
2023/04/06 05:04:02;;;;;;;26.02;12.23;;;;;;;-146.27;36.14;82629.28;5077428;28;20032;-68
2023/04/06 05:06:27;;;;;;;20.42;12.30;;;;;;;-146.27;36.11;82625.25;5091070;28;20549;-69
2023/04/06 05:08:53;;;;;;;23.10;12.90;;;;;;;-146.27;35.86;82605.16;5090783;28;20024;-69
2023/04/06 05:11:18;;;;;;;25.17;12.38;;;;;;;-146.27;36.07;82609.19;5090349;28;20036;-68
2023/04/06 05:13:44;;;;;;;20.48;12.35;;;;;;;-146.27;36.14;82651.38;5085632;28;20036;-69
2023/04/06 05:16:09;;;;;;;25.38;14.10;;;;;;;-146.27;35.65;82540.88;5085887;28;20024;-67
2023/04/06 05:18:35;;;;;;;28.70;12.23;;;;;;;-146.27;36.10;82567.00;5093079;28;20020;-68
2023/04/06 05:21:00;;;;;;;25.30;13.50;;;;;;;-146.27;36.04;82540.88;5087408;28;20017;-68
2023/04/06 05:23:26;;;;;;;25.65;13.27;;;;;;;-146.27;35.62;82522.78;5080334;28;20036;-68
2023/04/06 05:25:51;;;;;;;29.05;15.18;;;;;;;-146.27;35.91;82583.06;5086990;28;20035;-69
2023/04/06 05:28:17;;;;;;;27.13;13.93;;;;;;;-146.27;36.52;82573.00;5086250;28;20031;-69
2023/04/06 05:30:44;;;;;;;22.00;13.18;;;;;;;-146.27;36.66;82530.84;5082165;28;20039;-72
2023/04/06 05:33:10;;;;;;;27.90;13.93;;;;;;;-146.27;36.53;82653.38;5081755;28;20582;-73
2023/04/06 05:35:36;;;;;;;28.92;14.77;;;;;;;-146.27;36.12;82558.97;5082590;28;20421;-69
2023/04/06 05:38:01;;;;;;;29.13;15.02;;;;;;;-146.27;35.36;82573.00;5085554;28;20031;-72
2023/04/06 05:40:26;;;;;;;33.75;15.38;;;;;;;-146.27;35.07;82438.44;5081342;28;20028;-68
2023/04/06 05:42:51;;;;;;;30.98;15.85;;;;;;;-146.27;34.92;82438.44;5084369;28;20053;-66
2023/04/06 05:45:18;;;;;;;33.78;16.05;;;;;;;-146.27;34.57;82327.94;5083050;28;20028;-68
2023/04/06 05:47:44;;;;;;;33.45;16.00;;;;;;;-146.27;34.71;82358.06;5082834;28;20026;-68
2023/04/06 05:50:15;;;;;;;35.67;17.13;;;;;;;-146.27;34.69;82414.31;5076971;28;20024;-68
2023/04/06 05:52:42;;;;;;;32.17;15.95;;;;;;;-146.27;35.02;82416.31;5081681;28;20192;-69
2023/04/06 05:55:09;;;;;;;33.00;17.30;;;;;;;-146.27;34.71;82327.94;5083001;28;20495;-69
2023/04/06 05:57:34;;;;;;;31.20;17.02;;;;;;;-146.27;34.72;82333.97;5080980;28;20039;-68
2023/04/06 06:00:00;;;;;;;31.50;17.98;;;;;;;-146.27;34.97;82283.75;5079311;28;20028;-69
2023/04/06 06:02:25;;;;;;;36.45;18.33;;;;;;;-146.27;34.38;82283.75;5081725;28;20403;-68
2023/04/06 06:04:51;;;;;;;34.40;18.05;;;;;;;-146.27;34.50;82285.75;5083470;28;20032;-68
2023/04/06 06:07:17;;;;;;;36.08;18.92;;;;;;;-146.27;34.42;82263.66;5079714;28;20024;-69
2023/04/06 06:09:42;;;;;;;36.75;18.90;;;;;;;-146.27;34.73;82283.75;5082300;28;20044;-67
2023/04/06 06:12:07;;;;;;;36.78;18.38;;;;;;;-146.27;34.74;82251.59;5080247;28;20016;-69
2023/04/06 06:14:33;;;;;;;39.80;18.65;;;;;;;-146.27;34.70;82265.66;5088297;28;20023;-67
2023/04/06 06:16:58;;;;;;;39.35;18.83;;;;;;;-146.27;34.99;82319.91;5082833;28;20024;-67
2023/04/06 06:19:23;;;;;;;35.53;18.58;;;;;;;-146.27;34.34;82181.31;5085209;28;20642;-69
2023/04/06 06:21:49;;;;;;;40.58;20.13;;;;;;;-146.27;34.02;82088.91;5071868;28;20021;-70
2023/04/06 06:24:14;;;;;;;40.92;20.10;;;;;;;-146.27;33.90;82115.00;5082994;28;20020;-70
2023/04/06 06:26:40;;;;;;;40.13;20.45;;;;;;;-146.27;33.96;82113.00;5078595;28;20099;-68
2023/04/06 06:29:06;;;;;;;37.85;19.10;;;;;;;-146.27;33.98;82106.97;5081553;28;20028;-70
2023/04/06 06:31:32;;;;;;;39.20;18.85;;;;;;;-146.27;33.90;82016.59;5082251;28;20085;-68
2023/04/06 06:33:57;;;;;;;44.20;21.35;;;;;;;-146.27;34.13;82111.00;5083484;28;20032;-69
2023/04/06 06:36:23;;;;;;;36.88;20.15;;;;;;;-146.27;33.92;82054.75;5087725;28;20028;-67
2023/04/06 06:38:48;;;;;;;38.05;19.73;;;;;;;-146.27;33.54;81998.50;5076663;28;20371;-69
2023/04/06 06:41:13;;;;;;;36.92;19.63;;;;;;;-146.27;33.52;82006.53;5074308;28;20023;-68
2023/04/06 06:43:39;;;;;;;47.78;21.23;;;;;;;-146.27;33.94;82064.81;5090269;28;20028;-72
2023/04/06 06:46:05;;;;;;;44.25;18.83;;;;;;;-146.27;33.98;81974.41;5114009;28;20031;-71
2023/04/06 06:48:31;;;;;;;40.47;19.50;;;;;;;-146.27;33.69;81948.31;5112676;28;20085;-71
2023/04/06 06:50:57;;;;;;;41.15;20.05;;;;;;;-146.27;33.93;81912.16;5081575;28;20033;-72
2023/04/06 06:53:23;;;;;;;38.70;19.50;;;;;;;-146.27;33.96;81908.13;5086869;28;20024;-72
2023/04/06 06:55:48;;;;;;;41.75;21.45;;;;;;;-146.27;33.69;81910.13;5076040;28;20459;-72
2023/04/06 06:58:14;;;;;;;38.10;20.02;;;;;;;-146.27;33.61;81869.97;5088606;28;20058;-72
2023/04/06 07:00:40;;;;;;;39.85;20.58;;;;;;;-146.27;33.98;81902.09;5088631;28;20069;-72
2023/04/06 07:03:05;;;;;;;38.95;19.27;;;;;;;-146.27;35.24;82141.13;5088231;28;20479;-73
2023/04/06 07:05:31;;;;;;;36.15;20.48;;;;;;;-146.27;33.92;81859.94;5080516;28;20032;-72
2023/04/06 07:07:56;;;;;;;39.15;18.48;;;;;;;-146.27;33.81;81845.88;5086976;28;20032;-72
2023/04/06 07:10:22;;;;;;;37.67;19.92;;;;;;;-146.27;33.32;81721.34;5092811;28;20062;-73
2023/04/06 07:12:47;;;;;;;36.97;19.88;;;;;;;-146.27;34.33;82002.53;5080791;28;20472;-72
2023/04/06 07:15:13;;;;;;;39.47;19.52;;;;;;;-146.27;33.95;81805.69;5091191;28;20028;-71
2023/04/06 07:17:38;;;;;;;36.53;19.52;;;;;;;-146.27;33.44;81705.28;5083475;28;20032;-72
2023/04/06 07:20:04;;;;;;;39.40;19.40;;;;;;;-146.27;32.73;81634.97;5082256;28;20051;-71
2023/04/06 07:22:30;;;;;;;32.95;18.23;;;;;;;-146.27;32.13;81375.91;5083650;28;20413;-71
2023/04/06 07:24:56;;;;;;;34.08;16.98;;;;;;;-146.27;31.68;81237.31;5085870;28;20020;-71
2023/04/06 07:27:21;;;;;;;33.17;17.65;;;;;;;-146.27;30.96;81038.50;5085072;28;20045;-72
2023/04/06 07:29:47;;;;;;;36.15;17.80;;;;;;;-146.27;29.72;80723.25;5089499;28;20031;-72
2023/04/06 07:32:12;;;;;;;36.88;18.17;;;;;;;-146.27;39.55;82822.13;5090259;28;20035;-72
2023/04/06 07:34:37;;;;;;;29.88;17.17;;;;;;;-146.27;51.83;83410.81;5104595;28;20034;-72
2023/04/06 07:37:03;;;;;;;33.03;17.50;;;;;;;-146.27;62.76;83543.44;5080445;28;20024;-72
2023/04/06 07:39:28;;;;;;;31.38;18.58;;;;;;;-146.27;68.18;83599.69;5089285;28;20020;-73
2023/04/06 07:41:54;;;;;;;38.92;19.27;;;;;;;-146.27;71.03;83676.06;5086138;28;20031;-71
2023/04/06 07:44:19;;;;;;;35.10;18.00;;;;;;;-146.27;72.62;83637.88;5100084;28;20035;-72
2023/04/06 07:46:44;;;;;;;33.10;17.67;;;;;;;-146.27;74.40;83621.81;5085741;28;20423;-72
2023/04/06 07:49:10;;;;;;;29.75;17.92;;;;;;;-146.27;75.77;83613.75;5088913;28;20032;-72
2023/04/06 07:51:37;;;;;;;31.73;17.13;;;;;;;-146.27;78.08;83637.88;5078168;28;20024;-72
2023/04/06 07:54:03;;;;;;;32.72;17.63;;;;;;;-146.27;79.55;83617.78;5085413;28;20043;-72
2023/04/06 07:56:28;;;;;;;27.17;15.98;;;;;;;-146.27;80.37;83706.19;5083795;28;20375;-73
2023/04/06 07:58:56;;;;;;;34.97;17.35;;;;;;;-146.27;81.41;83629.84;5085770;28;20035;-72
2023/04/06 08:01:21;;;;;;;33.20;16.75;;;;;;;-146.27;81.63;83633.84;5075664;28;20029;-73
2023/04/06 08:03:47;;;;;;;26.80;15.68;;;;;;;-146.27;82.14;83569.56;5075350;28;20016;-71
2023/04/06 08:06:12;;;;;;;27.73;14.63;;;;;;;-146.27;83.41;83635.88;5086509;28;20479;-72
2023/04/06 08:08:38;;;;;;;29.27;15.30;;;;;;;-146.27;84.34;83637.88;5090722;28;20028;-72
2023/04/06 08:11:03;;;;;;;23.85;14.70;;;;;;;-146.27;83.86;83657.97;5092103;28;20048;-73
2023/04/06 08:13:28;;;;;;;31.65;15.57;;;;;;;-146.27;85.15;83633.84;5076396;28;20039;-72
2023/04/06 08:15:54;;;;;;;28.45;16.83;;;;;;;-146.27;86.84;83629.84;5092208;28;20391;-72
2023/04/06 08:18:19;;;;;;;26.10;15.57;;;;;;;-146.27;86.79;83666.00;5086542;28;20055;-71
2023/04/06 08:20:45;;;;;;;30.20;15.73;;;;;;;-146.27;87.57;83641.91;5090576;28;20011;-72
2023/04/06 08:23:10;;;;;;;32.38;17.40;;;;;;;-146.27;88.39;83670.03;5081306;28;20020;-72
2023/04/06 08:25:36;;;;;;;29.38;16.75;;;;;;;-146.27;88.48;83629.84;5083349;28;20503;-74
2023/04/06 08:28:02;;;;;;;31.83;17.70;;;;;;;-146.27;90.13;83666.00;5086406;28;20111;-72
2023/04/06 08:30:28;;;;;;;33.20;17.90;;;;;;;-146.27;91.03;83641.91;5079827;28;20024;-72
2023/04/06 08:32:54;;;;;;;36.13;18.83;;;;;;;-146.27;92.41;83696.16;5085705;28;20069;-72
2023/04/06 08:35:19;;;;;;;34.13;19.15;;;;;;;-146.27;92.44;83690.13;5079887;28;20089;-72
2023/04/06 08:37:45;;;;;;;37.45;20.13;;;;;;;-146.27;93.54;83704.19;5082315;28;20024;-71
2023/04/06 08:40:11;;;;;;;39.00;19.27;;;;;;;-146.27;94.28;83712.22;5081193;28;20459;-72
2023/04/06 08:42:41;;;;;;;35.58;19.88;;;;;;;-146.27;94.70;83696.16;5078281;28;20077;-72
2023/04/06 08:45:09;;;;;;;33.58;19.33;;;;;;;-146.27;93.95;83738.34;5085895;28;21646;-73
2023/04/06 08:47:35;;;;;;;34.45;18.92;;;;;;;-146.27;93.93;83736.34;5081704;28;20083;-72
2023/04/06 08:50:04;;;;;;;30.85;17.92;;;;;;;-146.27;93.95;83666.00;5086374;28;20379;-72
2023/04/06 08:52:32;;;;;;;30.25;18.75;;;;;;;-146.27;93.19;83633.84;5080555;28;20024;-71
2023/04/06 08:54:57;;;;;;;34.40;18.83;;;;;;;-146.27;94.01;83633.84;5080659;28;20102;-71
2023/04/06 08:57:23;;;;;;;35.42;18.60;;;;;;;-146.27;93.87;83659.97;5080031;28;20166;-72
2023/04/06 08:59:50;;;;;;;32.88;19.20;;;;;;;-146.27;93.62;83664.00;5088204;28;20028;-71
2023/04/06 09:02:18;;;;;;;30.20;17.45;;;;;;;-146.27;94.48;83666.00;5088524;28;20026;-73
2023/04/06 09:04:48;;;;;;;31.45;16.73;;;;;;;-146.27;94.94;83682.09;5087789;28;20149;-72
2023/04/06 09:07:15;;;;;;;31.52;16.88;;;;;;;-146.27;94.32;83668.00;5075746;28;20469;-72
2023/04/06 09:09:47;;;;;;;29.80;17.02;;;;;;;-146.27;94.16;83631.84;5084033;28;20071;-72
2023/04/06 09:12:28;;;;;;;33.38;16.40;;;;;;;-146.27;93.75;83657.97;5079905;28;20024;-74
2023/04/06 09:14:55;;;;;;;26.38;13.98;;;;;;;-146.27;94.36;83702.19;5082299;28;20028;-72
2023/04/06 09:17:26;;;;;;;29.38;14.43;;;;;;;-146.27;95.11;83655.97;5074648;28;20034;-73
2023/04/06 09:19:51;;;;;;;29.67;15.52;;;;;;;-146.27;95.17;83637.88;5085824;28;20390;-73
2023/04/06 09:22:18;;;;;;;24.48;14.70;;;;;;;-146.27;95.31;83670.03;5077964;28;20024;-72
2023/04/06 09:24:50;;;;;;;22.88;12.93;;;;;;;-146.27;94.27;83609.75;5089167;28;20032;-73
2023/04/06 09:27:15;;;;;;;20.25;11.25;;;;;;;-146.27;94.60;83639.88;5075849;28;20114;-73
2023/04/06 09:29:42;;;;;;;16.95;9.50;;;;;;;-146.27;93.36;83613.75;5090611;28;20145;-72
2023/04/06 09:32:12;;;;;;;20.10;9.65;;;;;;;-146.27;93.22;83639.88;5090822;28;20064;-72
2023/04/06 09:34:38;;;;;;;14.93;9.65;;;;;;;-146.27;94.25;83633.84;5082235;28;20491;-73
2023/04/06 09:37:17;;;;;;;19.35;10.38;;;;;;;-146.27;97.50;83633.84;5086259;28;20020;-72
2023/04/06 09:39:43;;;;;;;18.83;10.15;;;;;;;-146.27;97.64;83674.03;5077225;28;20644;-73
2023/04/06 09:42:08;;;;;;;16.35;9.50;;;;;;;-146.27;96.24;83666.00;5078966;28;20019;-72
2023/04/06 09:44:34;;;;;;;15.52;9.18;;;;;;;-146.27;99.33;83730.31;5082959;28;20031;-72
2023/04/06 09:47:03;;;;;;;16.75;9.05;;;;;;;-146.27;97.91;83670.03;5078459;28;20050;-73
2023/04/06 09:49:30;;;;;;;21.42;9.98;;;;;;;-146.27;99.58;83714.22;5087314;28;20028;-72
2023/04/06 09:52:08;;;;;;;19.88;9.90;;;;;;;-146.27;100.00;83726.28;5076773;28;20037;-72
2023/04/06 09:54:35;;;;;;;17.70;10.02;;;;;;;-146.27;100.00;83728.31;5081726;28;20033;-72
2023/04/06 09:57:28;;;;;;;16.48;9.40;;;;;;;-146.27;100.00;83722.28;5083073;28;20039;-72
2023/04/06 10:00:21;;;;;;;17.67;9.47;;;;;;;-146.27;100.00;83754.44;5087458;28;20110;-73
2023/04/06 10:03:09;;;;;;;18.50;9.07;;;;;;;-146.27;100.00;83746.38;5086100;28;20490;-71
2023/04/06 10:05:55;;;;;;;16.42;8.70;;;;;;;-146.27;100.00;83714.22;5081112;28;20032;-71
2023/04/06 10:08:24;;;;;;;14.43;9.02;;;;;;;-146.27;100.00;83740.34;5083576;28;20024;-72
2023/04/06 10:10:51;;;;;;;16.75;8.77;;;;;;;-146.27;100.00;83682.09;5078351;28;20092;-72
2023/04/06 10:13:16;;;;;;;12.93;7.85;;;;;;;-146.27;100.00;83734.31;5081581;28;20131;-72
2023/04/06 10:15:42;;;;;;;13.80;8.27;;;;;;;-146.27;100.00;83780.53;5085375;28;20523;-71
2023/04/06 10:18:08;;;;;;;15.77;8.90;;;;;;;-146.27;100.00;83766.47;5090110;28;20437;-71
2023/04/06 10:20:57;;;;;;;15.00;8.65;;;;;;;-146.27;100.00;83772.50;5092132;28;20067;-71
2023/04/06 10:23:39;;;;;;;13.52;8.65;;;;;;;-146.27;100.00;83744.38;5083706;28;20489;-71
2023/04/06 10:26:05;;;;;;;14.65;8.77;;;;;;;-146.27;100.00;83796.63;5088258;28;20104;-72
2023/04/06 10:28:35;;;;;;;21.02;8.77;;;;;;;-146.27;100.00;83794.63;5090779;28;20506;-71
2023/04/06 10:31:04;;;;;;;13.27;9.35;;;;;;;-146.27;100.00;83802.66;5084429;28;20084;-71
2023/04/06 10:33:29;;;;;;;14.73;9.75;;;;;;;-146.27;100.00;83790.59;5082465;28;20028;-71
2023/04/06 10:35:57;;;;;;;14.15;9.48;;;;;;;-146.27;100.00;83774.53;5075664;28;20024;-72
2023/04/06 10:38:38;;;;;;;18.10;9.48;;;;;;;-146.27;100.00;83798.63;5078025;28;20150;-72
2023/04/06 10:41:05;;;;;;;15.05;9.57;;;;;;;-146.27;100.00;83814.72;5085850;28;20028;-71
2023/04/06 10:43:35;;;;;;;16.90;10.50;;;;;;;-146.27;100.00;83762.47;5084764;28;20047;-71
2023/04/06 10:46:01;;;;;;;17.52;10.70;;;;;;;-146.27;100.00;83750.41;5081180;28;20012;-71
2023/04/06 10:48:38;;;;;;;15.73;10.15;;;;;;;-146.27;100.00;83788.59;5085683;28;20028;-71
2023/04/06 10:51:08;;;;;;;16.98;10.15;;;;;;;-146.27;100.00;83758.44;5077326;28;20020;-71
2023/04/06 10:53:34;;;;;;;16.25;11.25;;;;;;;-146.27;100.00;83726.28;5096090;28;20039;-71
2023/04/06 10:55:59;;;;;;;17.40;11.18;;;;;;;-146.27;100.00;83774.53;5114679;28;20031;-71
2023/04/06 10:58:26;;;;;;;16.00;11.27;;;;;;;-146.27;100.00;83778.53;5084484;28;20032;-71